createdAt,value
2023-08-19T00:03:27.035Z,64.34
2023-08-19T00:13:32.789Z,63.10
2023-08-19T00:23:38.651Z,62.35
2023-08-19T00:33:42.413Z,62.08
2023-08-19T00:43:47.789Z,62.18
2023-08-19T00:53:54.347Z,62.43
2023-08-19T01:03:59.193Z,62.55
2023-08-19T01:14:12.181Z,62.46
2023-08-19T01:24:23.258Z,62.19
2023-08-19T01:34:27.348Z,62.23
2023-08-19T01:44:32.801Z,62.10
2023-08-19T01:54:36.465Z,61.83
2023-08-19T02:04:41.958Z,61.92
2023-08-19T02:14:47.125Z,62.01
2023-08-19T02:24:50.924Z,62.09
2023-08-19T02:34:54.712Z,62.11
2023-08-19T02:45:01.126Z,62.30
2023-08-19T02:55:06.073Z,62.57
2023-08-19T03:05:11.721Z,62.75
2023-08-19T03:15:15.508Z,62.66
2023-08-19T03:25:19.270Z,62.47
2023-08-19T03:35:24.863Z,62.15
2023-08-19T03:45:28.676Z,61.55
2023-08-19T03:55:32.567Z,61.15
2023-08-19T04:05:36.497Z,61.09
2023-08-19T04:15:40.660Z,60.99
2023-08-19T04:25:48.663Z,61.13
2023-08-19T04:35:52.724Z,61.07
2023-08-19T04:45:59.454Z,58.05
2023-08-19T04:56:05.640Z,54.92
2023-08-19T05:06:16.485Z,55.02
2023-08-19T05:16:22.147Z,54.87
2023-08-19T05:26:26.277Z,54.67
2023-08-19T05:36:31.669Z,54.46
2023-08-19T05:46:35.717Z,54.02
2023-08-19T05:56:39.787Z,52.79
2023-08-19T06:06:43.717Z,51.55
2023-08-19T06:16:53.095Z,50.78
2023-08-19T06:26:58.718Z,49.91
2023-08-19T06:37:06.747Z,48.40
2023-08-19T06:47:14.924Z,45.94
2023-08-19T06:57:37.978Z,44.50
2023-08-19T07:07:53.105Z,44.39
2023-08-19T07:18:02.426Z,44.61
2023-08-19T07:28:16.818Z,44.78
2023-08-19T07:38:21.608Z,44.67
2023-08-19T07:48:26.862Z,44.45
2023-08-19T07:58:30.618Z,43.87
2023-08-19T08:08:34.379Z,43.81
2023-08-19T08:18:42.776Z,44.39
2023-08-19T08:28:46.816Z,43.98
2023-08-19T08:38:50.477Z,44.43
2023-08-19T08:48:57.417Z,43.33
2023-08-19T08:59:01.153Z,41.80
2023-08-19T09:09:10.497Z,41.46
2023-08-19T09:19:15.717Z,41.50
2023-08-19T09:29:20.949Z,41.42
2023-08-19T09:39:34.040Z,42.15
2023-08-19T09:49:38.731Z,41.33
2023-08-19T09:59:42.640Z,40.22
2023-08-19T10:09:46.409Z,39.94
2023-08-19T10:20:02.935Z,39.80
2023-08-19T10:30:26.406Z,39.73
2023-08-19T10:40:33.653Z,38.09
2023-08-19T10:50:39.039Z,36.92
2023-08-19T11:00:47.066Z,36.05
2023-08-19T11:10:52.091Z,35.54
2023-08-19T11:20:56.136Z,34.07
2023-08-19T11:31:01.938Z,33.83
2023-08-19T11:41:06.015Z,34.10
2023-08-19T11:51:18.302Z,33.41
2023-08-19T12:01:24.892Z,33.25
2023-08-19T12:11:34.791Z,33.82
2023-08-19T12:21:39.912Z,34.06
2023-08-19T12:31:45.604Z,34.34
2023-08-19T12:41:49.434Z,35.02
2023-08-19T12:51:53.151Z,35.02
2023-08-19T13:01:58.226Z,34.91
2023-08-19T13:12:04.636Z,34.60
2023-08-19T13:22:08.912Z,34.82
2023-08-19T13:32:13.602Z,34.68
2023-08-19T13:42:17.473Z,35.27
2023-08-19T13:52:48.644Z,36.65
2023-08-19T14:02:52.370Z,37.95
2023-08-19T14:12:56.897Z,38.46
2023-08-19T14:23:01.722Z,38.32
2023-08-19T14:33:06.254Z,38.50
2023-08-19T14:43:10.369Z,38.76
2023-08-19T14:53:14.265Z,38.48
2023-08-19T15:03:19.138Z,37.01
2023-08-19T15:13:23.717Z,37.01
2023-08-19T15:23:31.706Z,37.96
2023-08-19T15:33:43.932Z,38.75
2023-08-19T15:43:47.608Z,38.51
2023-08-19T15:53:53.959Z,38.75
2023-08-19T16:04:01.181Z,38.95
2023-08-19T16:14:06.056Z,39.45
2023-08-19T16:24:09.851Z,40.58
2023-08-19T16:34:13.534Z,42.00
2023-08-19T16:44:17.912Z,42.24
2023-08-19T16:54:22.829Z,41.83
2023-08-19T17:04:27.056Z,42.24
2023-08-19T17:14:36.989Z,42.97
2023-08-19T17:24:40.705Z,43.91
2023-08-19T17:34:46.341Z,44.60
2023-08-19T17:44:54.892Z,45.33
2023-08-19T17:55:02.457Z,46.15
2023-08-19T18:05:06.839Z,47.23
2023-08-19T18:15:14.792Z,49.12
2023-08-19T18:25:18.543Z,49.54
2023-08-19T18:35:23.846Z,49.98
2023-08-19T18:45:28.875Z,50.22
2023-08-19T18:55:36.568Z,50.37
2023-08-19T19:05:40.944Z,50.59
2023-08-19T19:15:44.980Z,51.09
2023-08-19T19:25:48.752Z,51.77
2023-08-19T19:35:56.924Z,52.73
2023-08-19T19:46:01.441Z,53.76
2023-08-19T19:56:06.905Z,54.44
2023-08-19T20:06:11.869Z,54.79
2023-08-19T20:16:20.593Z,55.60
2023-08-19T20:26:27.275Z,56.36
2023-08-19T20:36:34.852Z,56.80
2023-08-19T20:46:42.440Z,57.23
2023-08-19T20:56:49.742Z,57.62
2023-08-19T21:06:53.424Z,58.26
2023-08-19T21:17:01.987Z,58.88
2023-08-19T21:27:08.859Z,59.39
2023-08-19T21:37:14.528Z,59.69
2023-08-19T21:47:18.221Z,60.06
2023-08-19T21:57:21.935Z,60.69
2023-08-19T22:07:25.625Z,61.78
2023-08-19T22:17:30.988Z,62.98
2023-08-19T22:27:35.651Z,63.65
2023-08-19T22:37:39.785Z,63.89
2023-08-19T22:47:47.772Z,64.01
2023-08-19T22:57:51.904Z,63.99
2023-08-19T23:07:55.981Z,63.87
2023-08-19T23:18:01.546Z,63.85
2023-08-19T23:28:05.702Z,64.18
2023-08-19T23:38:10.013Z,64.23
2023-08-19T23:48:14.411Z,64.83
2023-08-19T23:58:21.138Z,65.94
